Дата Пункты Температура Давл., мм. Влажн., % Ветер Погодные явления
Воздуха Воды Направл. Скорость
14.11.19 05:00 Одесса 11.0 14.0 760 82 С 9 05 ГОДИН
14.11.19 02:00 Одесса 11.0 14.0 760 88 С 8 02 ГОДИНИ
13.11.19 11:00 Одесса 11.0 14.0 761 89 С 8 23 ГОДИНИ
13.11.19 08:00 Одесса 12.0 14.0 761 82 С 8 20 ГОДИН
13.11.19 05:00 Одесса 15.0 14.0 761 76 С 6 17 ГОДИН
13.11.19 02:00 Одесса 14.0 14.0 761 83 С 5 14 ГОДИН
13.11.19 11:00 Одесса 12.0 14.0 762 88 С 6 11 ГОДИН
13.11.19 08:00 Одесса 12.0 14.0 762 91 С 7 08 ГОДИН
13.11.19 05:00 Одесса 12.0 14.0 762 92 С 7 05 ГОДИН
13.11.19 02:00 Одесса 12.0 14.0 763 92 С 7 02 ГОДИНИ
12.11.19 11:00 Одесса 12.0 14.0 764 97 С 7 23 ГОДИНИ
12.11.19 08:00 Одесса 13.0 14.0 764 92 С 7 20 ГОДИН
12.11.19 05:00 Одесса 12.0 14.0 764 95 С 5 17 ГОДИН
12.11.19 02:00 Одесса 13.0 14.0 764 95 С 6 14 ГОДИН
12.11.19 11:00 Одесса 13.0 14.0 764 100 С 4 11 ГОДИН
12.11.19 08:00 Одесса 13.0 14.0 764 100 С 3 08 ГОДИН
12.11.19 05:00 Одесса 13.0 14.0 763 100 Пн 0 05 ГОДИН
12.11.19 02:00 Одесса 11.0 14.0 762 92 Пн 0 02 ГОДИНИ
11.11.19 11:00 Одесса 12.0 14.0 762 91 Пн 0 23 ГОДИНИ
11.11.19 08:00 Одесса 14.0 14.0 761 80 Пн 0 20 ГОДИН
Количество строк
1 2 3 4 5 6 7 8 9 10
Page 3 of 553